Time;durP1;ratioP1;P1;durP2;ratioP2;P2;SDS_P1;SDS_P2;PMS_P1;PMS_P2;Temp;Humidity;BMP_temperature;BMP_pressure;BME280_temperature;BME280_humidity;BME280_pressure;Samples;Min_cycle;Max_cycle;Signal;HPM_P1;HPM_P2
2021/11/06 00:01:39;;;;;;;1999.90;999.90;;;;;;;9.71;100.00;96220.28;5049899;28;20256;-73
2021/11/06 00:04:06;;;;;;;1999.90;999.90;;;;;;;9.68;100.00;96215.59;5050168;28;20250;-73
2021/11/06 00:06:33;;;;;;;1999.90;999.90;;;;;;;9.79;100.00;96214.50;5050053;28;20224;-73
2021/11/06 00:09:00;;;;;;;1999.90;999.90;;;;;;;9.87;100.00;96209.50;5049788;28;20292;-73
2021/11/06 00:11:28;;;;;;;1999.90;999.90;;;;;;;10.10;100.00;96200.25;5049396;28;20259;-73
2021/11/06 00:13:56;;;;;;;1999.90;999.90;;;;;;;10.19;100.00;96201.25;5050058;28;20185;-73
2021/11/06 00:16:23;;;;;;;1999.90;999.90;;;;;;;10.27;100.00;96197.28;5050121;28;20223;-73
2021/11/06 00:18:50;;;;;;;1999.90;999.90;;;;;;;10.31;100.00;96193.84;5049986;28;20197;-73
2021/11/06 00:21:17;;;;;;;1999.90;999.90;;;;;;;10.34;100.00;96197.75;5050026;28;20224;-73
2021/11/06 00:23:44;;;;;;;1999.90;999.90;;;;;;;10.47;100.00;96196.31;5049699;28;20231;-73
2021/11/06 00:26:11;;;;;;;1999.90;999.90;;;;;;;10.46;100.00;96207.78;5049630;28;20201;-73
2021/11/06 00:28:38;;;;;;;1999.90;999.90;;;;;;;10.44;100.00;96213.25;5049571;28;20201;-73
2021/11/06 00:31:07;;;;;;;1999.90;999.90;;;;;;;10.45;100.00;96220.00;5050003;28;20205;-73
2021/11/06 00:33:34;;;;;;;1999.90;999.90;;;;;;;10.50;100.00;96217.34;5049597;28;20198;-73
2021/11/06 00:36:01;;;;;;;1999.90;999.90;;;;;;;10.44;100.00;96223.63;5049956;28;20746;-73
2021/11/06 00:38:28;;;;;;;1999.90;999.90;;;;;;;10.43;100.00;96226.50;5049672;28;20193;-73
2021/11/06 00:40:55;;;;;;;1999.90;999.90;;;;;;;10.36;100.00;96226.84;5050235;28;20271;-73
2021/11/06 00:43:22;;;;;;;1999.90;999.90;;;;;;;10.01;100.00;96227.88;5049493;28;20258;-73
2021/11/06 00:45:49;;;;;;;1999.90;999.90;;;;;;;9.82;100.00;96224.34;5049874;28;20258;-73
2021/11/06 00:48:17;;;;;;;1999.90;999.90;;;;;;;9.77;100.00;96216.59;5049641;28;20315;-73
2021/11/06 00:50:44;;;;;;;1999.90;999.90;;;;;;;9.88;100.00;96215.47;5049538;28;20239;-73
2021/11/06 00:53:11;;;;;;;1999.90;999.90;;;;;;;9.88;100.00;96218.06;5053176;28;20201;-73
2021/11/06 00:55:39;;;;;;;1999.90;999.90;;;;;;;9.80;100.00;96223.84;5053451;28;20193;-73
2021/11/06 00:58:06;;;;;;;1999.90;999.90;;;;;;;9.68;100.00;96226.00;5053195;28;20197;-73
2021/11/06 01:00:33;;;;;;;1999.90;999.90;;;;;;;9.49;100.00;96224.03;5053106;28;20200;-73
2021/11/06 01:05:37;;;;;;;1999.90;999.90;;;;;;;9.26;100.00;96229.84;5128419;22;20252;-68
2021/11/06 01:08:04;;;;;;;1999.90;999.90;;;;;;;8.98;100.00;96243.44;5053416;28;20279;-68
2021/11/06 01:10:32;;;;;;;1999.90;999.90;;;;;;;8.76;100.00;96243.75;5060441;28;20845;-68
2021/11/06 01:12:59;;;;;;;1999.90;999.90;;;;;;;8.90;100.00;96242.16;5073124;28;20197;-68
2021/11/06 01:15:26;;;;;;;1999.90;999.90;;;;;;;8.92;100.00;96240.06;5073541;28;20254;-68
2021/11/06 01:17:53;;;;;;;1999.90;999.90;;;;;;;8.83;100.00;96246.06;5073279;28;20196;-68
2021/11/06 01:20:20;;;;;;;1999.90;999.90;;;;;;;8.57;100.00;96255.69;5072931;28;20197;-68
2021/11/06 01:22:49;;;;;;;1999.90;999.90;;;;;;;8.45;100.00;96262.97;5064725;28;20193;-68
2021/11/06 01:25:17;;;;;;;1999.90;999.90;;;;;;;8.59;100.00;96264.75;5052983;28;20302;-68
2021/11/06 01:27:44;;;;;;;1999.90;999.90;;;;;;;8.63;100.00;96263.19;5052500;28;20645;-68
2021/11/06 01:30:12;;;;;;;1999.90;999.90;;;;;;;8.70;100.00;96269.94;5052494;28;20205;-68
2021/11/06 01:32:40;;;;;;;1999.90;999.90;;;;;;;8.85;100.00;96275.09;5052792;28;20624;-68
2021/11/06 01:35:09;;;;;;;1999.90;999.90;;;;;;;8.89;100.00;96276.13;5052458;28;20209;-68
2021/11/06 01:37:36;;;;;;;1999.90;999.90;;;;;;;8.85;100.00;96278.47;5052394;28;20205;-68
2021/11/06 01:40:08;;;;;;;1999.90;999.90;;;;;;;8.88;100.00;96264.19;5052696;28;20201;-68
2021/11/06 01:42:35;;;;;;;1999.90;999.90;;;;;;;8.86;100.00;96272.25;5052585;28;20239;-68
2021/11/06 01:45:02;;;;;;;1999.90;999.90;;;;;;;8.92;100.00;96275.56;5052482;28;20205;-68
2021/11/06 01:47:29;;;;;;;1999.90;999.90;;;;;;;8.89;100.00;96255.38;5052216;28;20294;-68
2021/11/06 01:49:57;;;;;;;1999.90;999.90;;;;;;;8.87;100.00;96260.03;5052354;28;20200;-68
2021/11/06 01:52:24;;;;;;;1999.90;999.90;;;;;;;8.88;100.00;96254.59;5052330;28;20200;-68
2021/11/06 01:54:51;;;;;;;1999.90;999.90;;;;;;;8.95;100.00;96264.69;5052446;28;20193;-68
2021/11/06 01:57:19;;;;;;;1999.90;999.90;;;;;;;9.04;100.00;96257.94;5052371;28;20197;-68
2021/11/06 01:59:47;;;;;;;1999.90;999.90;;;;;;;9.01;100.00;96261.84;5064152;28;20249;-68
2021/11/06 02:02:14;;;;;;;1999.90;999.90;;;;;;;9.03;100.00;96253.78;5071839;28;20200;-68
2021/11/06 02:04:41;;;;;;;1999.90;999.90;;;;;;;8.91;100.00;96268.88;5064146;28;21055;-68
2021/11/06 02:07:08;;;;;;;1999.90;999.90;;;;;;;8.97;100.00;96263.38;5051846;28;20270;-68
2021/11/06 02:09:35;;;;;;;1999.90;999.90;;;;;;;9.04;100.00;96263.13;5051727;28;20553;-68
2021/11/06 02:12:02;;;;;;;1999.90;999.90;;;;;;;8.95;100.00;96260.28;5051743;28;20197;-68
2021/11/06 02:14:32;;;;;;;1999.90;999.90;;;;;;;8.92;100.00;96262.63;5051694;28;20231;-68
2021/11/06 02:16:59;;;;;;;1999.90;999.90;;;;;;;8.97;100.00;96258.19;5051593;28;20734;-68
2021/11/06 02:19:31;;;;;;;1999.90;999.90;;;;;;;8.98;100.00;96264.16;5051638;28;20197;-68
2021/11/06 02:22:01;;;;;;;1999.90;999.90;;;;;;;9.04;100.00;96268.31;5051891;28;20205;-68
2021/11/06 02:24:29;;;;;;;1999.90;999.90;;;;;;;9.07;100.00;96272.94;5051602;28;20196;-68
2021/11/06 02:26:56;;;;;;;1999.90;999.90;;;;;;;9.03;100.00;96280.47;5051420;28;20865;-68
2021/11/06 02:29:23;;;;;;;1999.90;999.90;;;;;;;9.05;100.00;96285.41;5051681;28;20204;-68
2021/11/06 02:31:51;;;;;;;1999.90;999.90;;;;;;;9.06;100.00;96292.16;5051494;28;20284;-68
2021/11/06 02:34:18;;;;;;;1999.90;999.90;;;;;;;9.04;100.00;96304.59;5051342;28;20223;-68
2021/11/06 02:36:45;;;;;;;1999.90;999.90;;;;;;;8.96;100.00;96299.97;5051581;28;20205;-68
2021/11/06 02:39:14;;;;;;;1999.90;999.90;;;;;;;8.96;100.00;96294.78;5051283;28;20201;-68
2021/11/06 02:41:41;;;;;;;1999.90;999.90;;;;;;;8.92;100.00;96294.50;5051470;28;20291;-68
2021/11/06 02:44:10;;;;;;;1999.90;999.90;;;;;;;8.92;100.00;96312.66;5051152;28;20201;-68
2021/11/06 02:46:38;;;;;;;1999.90;999.90;;;;;;;9.05;100.00;96311.34;5050966;28;20197;-68
2021/11/06 02:49:06;;;;;;;1999.90;999.90;;;;;;;9.02;100.00;96311.84;5051324;28;20274;-68
2021/11/06 02:51:34;;;;;;;1999.90;999.90;;;;;;;8.82;100.00;96319.66;5050875;28;20193;-68
2021/11/06 02:54:01;;;;;;;1999.90;999.90;;;;;;;8.74;100.00;96296.88;5050967;28;20247;-68
2021/11/06 02:56:30;;;;;;;1999.90;999.90;;;;;;;8.79;100.00;96305.41;5051247;28;20201;-68
2021/11/06 02:58:58;;;;;;;1999.90;999.90;;;;;;;8.68;100.00;96318.63;5056118;28;20189;-68
2021/11/06 03:01:26;;;;;;;1999.90;999.90;;;;;;;8.62;100.00;96323.03;5071061;28;20220;-69
2021/11/06 03:03:53;;;;;;;1999.90;999.90;;;;;;;8.49;100.00;96339.88;5070374;28;20223;-68
2021/11/06 03:06:21;;;;;;;1999.90;999.90;;;;;;;8.24;100.00;96342.44;5050763;28;20240;-68
2021/11/06 03:08:48;;;;;;;1999.90;999.90;;;;;;;8.39;100.00;96342.47;5050597;28;20656;-68
2021/11/06 03:11:15;;;;;;;1999.90;999.90;;;;;;;8.46;100.00;96343.00;5050539;28;20201;-68
2021/11/06 03:13:45;;;;;;;1999.90;999.90;;;;;;;8.41;100.00;96337.03;5050931;28;20669;-68
2021/11/06 03:16:15;;;;;;;1999.90;999.90;;;;;;;8.33;100.00;96330.53;5050566;28;20186;-68
2021/11/06 03:18:42;;;;;;;1999.90;999.90;;;;;;;8.53;100.00;96340.91;5050545;28;20669;-68
2021/11/06 03:21:09;;;;;;;1999.90;999.90;;;;;;;8.57;100.00;96343.75;5050802;28;20224;-68
2021/11/06 03:23:36;;;;;;;1999.90;999.90;;;;;;;8.58;100.00;96340.16;5050474;28;20290;-68
2021/11/06 03:26:03;;;;;;;1999.90;999.90;;;;;;;8.50;100.00;96341.44;5050341;28;20209;-68
2021/11/06 03:28:30;;;;;;;1999.90;999.90;;;;;;;8.53;100.00;96345.31;5050240;28;20225;-68
2021/11/06 03:30:59;;;;;;;1999.90;999.90;;;;;;;8.62;100.00;96338.59;5050373;28;20198;-68
2021/11/06 03:33:26;;;;;;;1999.90;999.90;;;;;;;8.73;100.00;96331.59;5050598;28;20194;-68
2021/11/06 03:35:54;;;;;;;1999.90;999.90;;;;;;;8.72;100.00;96335.25;5050428;28;20198;-69
2021/11/06 03:38:21;;;;;;;1999.90;999.90;;;;;;;8.74;100.00;96336.53;5050250;28;20201;-68
2021/11/06 03:40:48;;;;;;;1999.90;999.90;;;;;;;8.77;100.00;96322.25;5050179;28;20688;-68
2021/11/06 03:43:15;;;;;;;1999.90;999.90;;;;;;;8.83;100.00;96318.63;5050145;28;20200;-68
2021/11/06 03:45:42;;;;;;;1999.90;999.90;;;;;;;8.66;100.00;96333.69;5050513;28;20197;-68
2021/11/06 03:48:11;;;;;;;1999.90;999.90;;;;;;;8.75;100.00;96339.88;5050289;28;20221;-68
2021/11/06 03:50:38;;;;;;;1999.90;999.90;;;;;;;8.75;100.00;96338.06;5050461;28;20630;-68
2021/11/06 03:53:06;;;;;;;1999.90;999.90;;;;;;;8.67;100.00;96337.84;5050410;28;20746;-68
2021/11/06 03:55:33;;;;;;;1999.90;999.90;;;;;;;8.60;100.00;96351.81;5050071;28;20240;-68
2021/11/06 03:58:00;;;;;;;1999.90;999.90;;;;;;;8.71;100.00;96367.38;5050044;28;20930;-68
2021/11/06 04:00:27;;;;;;;1999.90;999.90;;;;;;;8.86;100.00;96355.19;5067660;28;20188;-68
2021/11/06 04:02:54;;;;;;;1999.90;999.90;;;;;;;8.82;100.00;96353.34;5070334;28;20200;-68
2021/11/06 04:05:23;;;;;;;1999.90;999.90;;;;;;;8.66;100.00;96369.97;5057168;28;20793;-68
2021/11/06 04:07:50;;;;;;;1999.90;999.90;;;;;;;8.62;100.00;96377.44;5049847;28;20274;-68
2021/11/06 04:10:17;;;;;;;1999.90;999.90;;;;;;;8.73;100.00;96347.91;5049750;28;20209;-68
2021/11/06 04:12:45;;;;;;;1999.90;999.90;;;;;;;8.66;100.00;96338.88;5050168;28;20197;-68
2021/11/06 04:15:13;;;;;;;1999.90;999.90;;;;;;;8.76;100.00;96339.63;5049861;28;20291;-68
2021/11/06 04:17:40;;;;;;;1999.90;999.90;;;;;;;8.78;100.00;96334.19;5049826;28;20284;-68
2021/11/06 04:20:09;;;;;;;1999.90;999.90;;;;;;;8.82;100.00;96333.38;5049922;28;20279;-68
2021/11/06 04:22:38;;;;;;;1999.90;999.90;;;;;;;8.87;100.00;96342.97;5049717;28;20205;-68
2021/11/06 04:25:08;;;;;;;1999.90;999.90;;;;;;;8.80;100.00;96345.06;5050189;28;20201;-68
2021/11/06 04:27:35;;;;;;;1999.90;999.90;;;;;;;8.76;100.00;96354.41;5053084;28;20278;-68
2021/11/06 04:30:02;;;;;;;1999.90;999.90;;;;;;;8.76;100.00;96364.78;5054147;28;20680;-68
2021/11/06 04:32:29;;;;;;;1999.90;999.90;;;;;;;8.82;100.00;96366.31;5053856;28;20280;-68
2021/11/06 04:34:56;;;;;;;1999.90;999.90;;;;;;;8.84;100.00;96366.84;5053961;28;20223;-68
2021/11/06 04:37:23;;;;;;;1999.90;999.90;;;;;;;8.80;100.00;96378.75;5053850;28;20224;-68
2021/11/06 04:39:52;;;;;;;1999.90;999.90;;;;;;;8.84;100.00;96377.97;5053591;28;20215;-68
2021/11/06 04:42:19;;;;;;;1999.90;999.90;;;;;;;8.83;100.00;96378.22;5053721;28;20647;-68
2021/11/06 04:44:46;;;;;;;1999.90;999.90;;;;;;;8.85;100.00;96389.13;5053659;28;20609;-68
2021/11/06 04:47:13;;;;;;;1999.90;999.90;;;;;;;8.85;100.00;96389.13;5053261;28;20673;-68
2021/11/06 04:49:40;;;;;;;1999.90;999.90;;;;;;;8.74;100.00;96395.34;5053581;28;20251;-68
2021/11/06 04:52:07;;;;;;;1999.90;999.90;;;;;;;8.75;100.00;96391.72;5053556;28;20260;-68
2021/11/06 04:54:34;;;;;;;1999.90;999.90;;;;;;;8.79;100.00;96400.53;5053176;28;20204;-68
2021/11/06 04:57:03;;;;;;;1999.90;999.90;;;;;;;8.77;100.00;96405.97;5053390;28;20197;-68
2021/11/06 04:59:30;;;;;;;1999.90;999.90;;;;;;;8.77;100.00;96402.59;5062888;28;20630;-68
2021/11/06 05:01:57;;;;;;;1999.90;999.90;;;;;;;8.76;100.00;96404.44;5073378;28;20196;-68
2021/11/06 05:04:24;;;;;;;1999.90;999.90;;;;;;;8.93;100.00;96404.94;5068187;28;20243;-68
2021/11/06 05:06:51;;;;;;;1999.90;999.90;;;;;;;8.90;100.00;96410.66;5053204;28;20231;-68
2021/11/06 05:09:19;;;;;;;1999.90;999.90;;;;;;;8.93;100.00;96417.09;5052874;28;20228;-68
2021/11/06 05:11:46;;;;;;;1999.90;999.90;;;;;;;8.98;100.00;96414.53;5052890;28;20224;-68
2021/11/06 05:14:14;;;;;;;1999.90;999.90;;;;;;;8.99;100.00;96414.28;5052837;28;20232;-68
2021/11/06 05:16:42;;;;;;;1999.90;999.90;;;;;;;9.01;100.00;96421.78;5053056;28;20197;-68
2021/11/06 05:19:09;;;;;;;1999.90;999.90;;;;;;;9.16;100.00;96431.38;5052808;28;20637;-68
2021/11/06 05:21:37;;;;;;;1999.90;999.90;;;;;;;9.23;100.00;96437.06;5052657;28;20205;-66
2021/11/06 05:24:05;;;;;;;1999.90;999.90;;;;;;;9.38;100.00;96429.25;5052595;28;20233;-68
2021/11/06 05:26:34;;;;;;;1999.90;999.90;;;;;;;9.36;100.00;96415.78;5052856;28;20575;-68
2021/11/06 05:29:03;;;;;;;1999.90;999.90;;;;;;;9.45;100.00;96419.41;5052599;28;20256;-68
2021/11/06 05:31:32;;;;;;;1999.90;999.90;;;;;;;9.57;100.00;96414.69;5052552;28;20185;-68
2021/11/06 05:33:59;;;;;;;1999.90;999.90;;;;;;;9.64;100.00;96427.41;5052880;28;20205;-68
2021/11/06 05:36:26;;;;;;;1999.90;999.90;;;;;;;9.77;100.00;96437.22;5052383;28;20574;-69
2021/11/06 05:38:53;;;;;;;1999.90;999.90;;;;;;;9.89;100.00;96440.31;5051469;28;20198;-68
2021/11/06 05:41:20;;;;;;;1999.90;999.90;;;;;;;9.99;100.00;96444.69;5052201;28;20236;-68
2021/11/06 05:43:48;;;;;;;1999.90;999.90;;;;;;;10.09;100.00;96449.84;5052339;28;20197;-68
2021/11/06 05:46:16;;;;;;;1999.90;999.90;;;;;;;10.17;100.00;96451.91;5052150;28;20202;-68
2021/11/06 05:48:44;;;;;;;1999.90;999.90;;;;;;;10.22;100.00;96451.88;5052097;28;20221;-68
2021/11/06 05:51:11;;;;;;;1999.90;999.90;;;;;;;10.35;100.00;96462.47;5052041;28;20255;-68
2021/11/06 05:53:39;;;;;;;1999.90;999.90;;;;;;;10.42;100.00;96464.78;5052162;28;20235;-68
2021/11/06 05:56:06;;;;;;;1999.90;999.90;;;;;;;10.48;100.00;96468.91;5052125;28;20702;-68
2021/11/06 05:58:33;;;;;;;1999.90;999.90;;;;;;;10.66;100.00;96472.72;5053720;28;20585;-69
2021/11/06 06:01:01;;;;;;;1999.90;999.90;;;;;;;10.83;100.00;96486.13;5072267;28;20218;-68
2021/11/06 06:03:28;;;;;;;1999.90;999.90;;;;;;;10.94;100.00;96487.63;5056392;28;20193;-68
2021/11/06 06:05:56;;;;;;;1999.90;999.90;;;;;;;11.10;100.00;96486.47;5051758;28;20255;-68
2021/11/06 06:08:24;;;;;;;1999.90;999.90;;;;;;;11.15;100.00;96476.03;5052009;28;20220;-69
2021/11/06 06:10:51;;;;;;;1999.90;999.90;;;;;;;11.22;100.00;96486.88;5051871;28;20763;-68
2021/11/06 06:13:19;;;;;;;1999.90;999.90;;;;;;;11.23;100.00;96485.84;5051662;28;20259;-68
2021/11/06 06:15:46;;;;;;;1999.90;999.90;;;;;;;11.35;100.00;96487.31;5052057;28;20201;-68
2021/11/06 06:18:13;;;;;;;1999.90;999.90;;;;;;;11.39;100.00;96496.91;5051586;28;20730;-68
2021/11/06 06:20:40;;;;;;;1999.90;999.90;;;;;;;11.47;100.00;96521.56;5051873;28;20204;-68
2021/11/06 06:23:08;;;;;;;1999.90;999.90;;;;;;;11.57;100.00;96522.25;5051551;28;20232;-68
2021/11/06 06:25:36;;;;;;;1999.90;999.90;;;;;;;11.68;100.00;96522.94;5051792;28;20597;-68
2021/11/06 06:28:04;;;;;;;1999.90;999.90;;;;;;;11.68;100.00;96532.56;5051369;28;20197;-68
2021/11/06 06:30:33;;;;;;;1999.90;999.90;;;;;;;11.84;100.00;96531.41;5051699;28;20309;-68
2021/11/06 06:33:00;;;;;;;1999.90;999.90;;;;;;;11.95;100.00;96531.06;5051426;28;20192;-68
2021/11/06 06:35:29;;;;;;;1999.90;999.90;;;;;;;12.06;100.00;96529.09;5051137;28;20635;-68
2021/11/06 06:37:57;;;;;;;1999.90;999.90;;;;;;;12.15;100.00;96543.09;5050358;28;20201;-67
2021/11/06 06:40:26;;;;;;;1999.90;999.90;;;;;;;12.18;100.00;96549.56;5051144;28;20668;-68
2021/11/06 06:42:53;;;;;;;1999.90;999.90;;;;;;;12.24;100.00;96543.25;5051283;28;20193;-68
2021/11/06 06:45:21;;;;;;;1999.90;999.90;;;;;;;12.33;100.00;96544.19;5051433;28;20204;-68
2021/11/06 06:47:48;;;;;;;1999.90;999.90;;;;;;;12.37;100.00;96539.97;5051027;28;20205;-68
2021/11/06 06:50:15;;;;;;;1999.90;999.90;;;;;;;12.45;100.00;96526.34;5050601;28;20318;-68
2021/11/06 06:52:43;;;;;;;1999.90;999.90;;;;;;;12.60;100.00;96533.19;5050824;28;20208;-68
2021/11/06 06:55:10;;;;;;;1999.90;999.90;;;;;;;12.65;100.00;96544.31;5051335;28;20577;-68
2021/11/06 06:57:39;;;;;;;1999.90;999.90;;;;;;;12.76;100.00;96545.75;5050776;28;20263;-68
2021/11/06 07:00:08;;;;;;;1999.90;999.90;;;;;;;12.87;100.00;96543.78;5065570;28;20317;-68
2021/11/06 07:02:35;;;;;;;1999.90;999.90;;;;;;;13.00;100.00;96544.94;5070443;28;20212;-68
2021/11/06 07:05:03;;;;;;;1999.90;999.90;;;;;;;13.02;100.00;96556.63;5060619;28;20701;-68
2021/11/06 07:07:30;;;;;;;1999.90;999.90;;;;;;;13.12;100.00;96550.53;5050480;28;20197;-68
2021/11/06 07:09:57;;;;;;;1999.90;999.90;;;;;;;13.17;100.00;96546.00;5050566;28;20678;-68
2021/11/06 07:12:26;;;;;;;1999.90;999.90;;;;;;;13.30;100.00;96550.50;5050612;28;20672;-68
2021/11/06 07:14:55;;;;;;;1999.90;999.90;;;;;;;13.40;100.00;96535.75;5050545;28;20193;-68
2021/11/06 07:17:22;;;;;;;1999.90;999.90;;;;;;;13.30;100.00;96541.88;5050682;28;20206;-68
2021/11/06 07:19:49;;;;;;;1999.90;999.90;;;;;;;13.32;100.00;96545.00;5050768;28;20197;-68
2021/11/06 07:22:16;;;;;;;1999.90;999.90;;;;;;;13.40;100.00;96546.22;5050785;28;20236;-68
2021/11/06 07:24:43;;;;;;;1999.90;999.90;;;;;;;13.46;100.00;96547.66;5050723;28;20254;-68
2021/11/06 07:27:11;;;;;;;1999.90;999.90;;;;;;;13.58;100.00;96548.00;5050547;28;20274;-68
2021/11/06 07:29:38;;;;;;;1999.90;999.90;;;;;;;13.70;100.00;96551.69;5050374;28;20232;-68
2021/11/06 07:32:08;;;;;;;1999.90;999.90;;;;;;;13.84;100.00;96556.97;5050511;28;20593;-68
2021/11/06 07:34:35;;;;;;;1999.90;999.90;;;;;;;13.89;100.00;96559.50;5050300;28;20197;-68
2021/11/06 07:37:02;;;;;;;1999.90;999.90;;;;;;;13.90;100.00;96561.03;5050565;28;20593;-68
2021/11/06 07:39:29;;;;;;;1999.90;999.90;;;;;;;13.82;100.00;96560.94;5050910;28;20243;-68
2021/11/06 07:41:56;;;;;;;1999.90;999.90;;;;;;;13.86;100.00;96564.50;5050361;28;20692;-68
2021/11/06 07:44:23;;;;;;;1999.90;999.90;;;;;;;13.90;100.00;96575.97;5050437;28;20200;-68
2021/11/06 07:46:50;;;;;;;1999.90;999.90;;;;;;;13.97;100.00;96571.13;5050248;28;20286;-68
2021/11/06 07:49:19;;;;;;;1999.90;999.90;;;;;;;14.07;100.00;96573.56;5049942;28;20224;-68
2021/11/06 07:51:46;;;;;;;1999.90;999.90;;;;;;;14.00;100.00;96581.00;5049885;28;20267;-68
2021/11/06 07:54:14;;;;;;;1999.90;999.90;;;;;;;14.08;100.00;96582.97;5049974;28;20200;-68
2021/11/06 07:56:41;;;;;;;1999.90;999.90;;;;;;;14.17;100.00;96582.00;5049442;28;20292;-68
2021/11/06 07:59:09;;;;;;;1999.90;999.90;;;;;;;14.27;100.00;96588.09;5056879;28;20195;-68
2021/11/06 08:01:36;;;;;;;1999.90;999.90;;;;;;;14.43;100.00;96584.97;5068981;28;20683;-68
2021/11/06 08:04:03;;;;;;;1999.90;999.90;;;;;;;14.50;100.00;96585.34;5068280;28;20297;-68
2021/11/06 08:06:32;;;;;;;1999.90;999.90;;;;;;;14.61;100.00;96588.53;5049732;28;20233;-69
2021/11/06 08:08:59;;;;;;;1999.90;999.90;;;;;;;14.63;100.00;96587.19;5049811;28;20229;-68
2021/11/06 08:11:27;;;;;;;1999.90;999.90;;;;;;;14.70;100.00;96592.00;5049888;28;20701;-68
2021/11/06 08:13:53;;;;;;;1999.90;999.90;;;;;;;14.65;100.00;96603.34;5050084;28;20201;-68
2021/11/06 08:16:21;;;;;;;1999.90;999.90;;;;;;;14.83;100.00;96601.72;5049840;28;20232;-68
2021/11/06 08:18:50;;;;;;;1999.90;999.90;;;;;;;14.92;99.83;96599.16;5049735;28;20693;-68
2021/11/06 08:21:17;;;;;;;1999.90;999.90;;;;;;;14.96;99.16;96592.28;5049846;28;20193;-68
2021/11/06 08:23:45;;;;;;;1999.90;999.90;;;;;;;14.92;98.87;96593.94;5049899;28;20193;-68
2021/11/06 08:26:12;;;;;;;1999.90;999.90;;;;;;;14.89;99.67;96590.06;5049788;28;20737;-68
2021/11/06 08:28:39;;;;;;;1999.90;999.90;;;;;;;14.95;99.33;96585.47;5049552;28;20645;-68
2021/11/06 08:31:06;;;;;;;1999.90;999.90;;;;;;;15.02;99.77;96591.09;5049997;28;20793;-68
2021/11/06 08:33:33;;;;;;;1999.90;999.90;;;;;;;15.04;99.91;96594.97;5049914;28;20255;-68
2021/11/06 08:36:01;;;;;;;1999.90;999.90;;;;;;;15.18;98.88;96613.28;5049664;28;20204;-68
2021/11/06 08:38:28;;;;;;;1999.90;999.90;;;;;;;15.23;99.24;96613.19;5049556;28;20220;-68
2021/11/06 08:40:57;;;;;;;1999.90;999.90;;;;;;;15.38;97.03;96615.47;5049782;28;20216;-68
2021/11/06 08:43:26;;;;;;;1999.90;999.90;;;;;;;15.39;96.32;96616.25;5049558;28;20650;-68
2021/11/06 08:45:53;;;;;;;1999.90;999.90;;;;;;;15.45;96.51;96604.56;5049679;28;20216;-68
2021/11/06 08:48:20;;;;;;;1999.90;999.90;;;;;;;15.57;95.98;96609.31;5049757;28;20284;-68
2021/11/06 08:50:48;;;;;;;1999.90;999.90;;;;;;;15.55;95.80;96608.81;5049560;28;20216;-68
2021/11/06 08:53:15;;;;;;;1999.90;999.90;;;;;;;15.37;96.77;96597.41;5049756;28;20197;-68
2021/11/06 08:55:42;;;;;;;1999.90;999.90;;;;;;;15.56;97.26;96594.66;5049387;28;20201;-68
2021/11/06 08:58:11;;;;;;;1999.90;999.90;;;;;;;15.78;97.24;96600.69;5049688;28;20262;-68
2021/11/06 09:00:41;;;;;;;1999.90;999.90;;;;;;;16.00;96.58;96605.13;5068780;28;20528;-69
2021/11/06 09:03:11;;;;;;;1999.90;999.90;;;;;;;16.09;94.54;96608.56;5069382;28;20741;-69
2021/11/06 09:05:38;;;;;;;1999.90;999.90;;;;;;;16.27;92.76;96604.97;5054529;28;20229;-69
2021/11/06 09:08:06;;;;;;;1999.90;999.90;;;;;;;16.28;92.44;96609.16;5049536;28;20201;-68
2021/11/06 09:10:34;;;;;;;1999.90;999.90;;;;;;;16.41;93.03;96615.38;5049278;28;20221;-69
2021/11/06 09:13:01;;;;;;;1999.90;999.90;;;;;;;16.54;90.73;96608.44;5051043;28;20193;-68
2021/11/06 09:15:29;;;;;;;1999.90;999.90;;;;;;;16.60;90.91;96612.53;5053119;28;20208;-68
2021/11/06 09:17:56;;;;;;;1999.90;999.90;;;;;;;16.50;90.16;96629.28;5052866;28;20240;-68
2021/11/06 09:20:23;;;;;;;1999.90;999.90;;;;;;;16.54;91.50;96637.31;5052778;28;20199;-69
2021/11/06 09:22:51;;;;;;;1999.90;999.90;;;;;;;16.53;92.53;96631.31;5052921;28;20236;-68
2021/11/06 09:25:18;;;;;;;1999.90;999.90;;;;;;;16.53;91.73;96633.94;5052629;28;20774;-69
2021/11/06 09:27:45;;;;;;;1999.90;999.90;;;;;;;16.63;91.15;96630.31;5052704;28;20193;-68
2021/11/06 09:30:13;;;;;;;1999.90;999.90;;;;;;;16.66;90.70;96627.06;5052568;28;20732;-68
2021/11/06 09:32:42;;;;;;;1999.90;999.90;;;;;;;16.60;89.55;96618.56;5052513;28;20283;-68
2021/11/06 09:35:10;;;;;;;1999.90;999.90;;;;;;;16.65;89.61;96613.16;5052801;28;20197;-69
2021/11/06 09:37:37;;;;;;;1999.90;999.90;;;;;;;16.73;88.58;96614.28;5052506;28;20266;-68
2021/11/06 09:40:08;;;;;;;1999.90;999.90;;;;;;;16.58;88.67;96607.59;5053006;28;20415;-68
2021/11/06 09:42:36;;;;;;;1999.90;999.90;;;;;;;16.44;88.89;96604.25;5052184;28;20232;-68
2021/11/06 09:45:03;;;;;;;1999.90;999.90;;;;;;;16.51;89.52;96603.81;5052536;28;20576;-69
2021/11/06 09:47:31;;;;;;;1999.90;999.90;;;;;;;16.51;87.84;96603.81;5052088;28;20197;-68
2021/11/06 09:49:59;;;;;;;1999.90;999.90;;;;;;;16.61;88.04;96596.47;5052085;28;20225;-69
2021/11/06 09:52:26;;;;;;;1999.90;999.90;;;;;;;16.68;88.62;96593.41;5052082;28;20286;-68
2021/11/06 09:54:53;;;;;;;1999.90;999.90;;;;;;;16.61;88.50;96588.59;5052110;28;20636;-69
2021/11/06 09:57:20;;;;;;;1999.90;999.90;;;;;;;16.66;88.35;96592.94;5051973;28;20955;-69
2021/11/06 09:59:48;;;;;;;1999.90;999.90;;;;;;;16.92;88.74;96585.91;5063816;28;20200;-69
2021/11/06 10:02:15;;;;;;;1999.90;999.90;;;;;;;16.79;87.77;96581.53;5072159;28;20546;-69
2021/11/06 10:04:42;;;;;;;1999.90;999.90;;;;;;;16.89;87.00;96578.63;5064849;28;20229;-69
2021/11/06 10:07:19;;;;;;;1999.90;999.90;;;;;;;16.92;86.32;96583.28;5051746;28;20288;-69
2021/11/06 10:10:00;;;;;;;1999.90;999.90;;;;;;;17.04;86.32;96575.56;5052232;28;20240;-69
2021/11/06 10:12:45;;;;;;;1999.90;999.90;;;;;;;16.90;87.01;96568.91;5051804;28;20669;-69
2021/11/06 10:15:13;;;;;;;1999.90;999.90;;;;;;;16.91;85.20;96573.84;5051766;28;20185;-69
2021/11/06 10:17:40;;;;;;;1999.90;999.90;;;;;;;17.11;84.70;96573.25;5051711;28;20228;-69
2021/11/06 10:20:29;;;;;;;1999.90;999.90;;;;;;;17.22;84.90;96563.22;5051604;28;20259;-69
2021/11/06 10:22:59;;;;;;;1999.90;999.90;;;;;;;17.13;84.13;96576.38;5051617;28;20189;-69
2021/11/06 10:25:27;;;;;;;1999.90;999.90;;;;;;;17.43;82.30;96587.03;5050862;28;20239;-69
2021/11/06 10:27:56;;;;;;;1999.90;999.90;;;;;;;17.41;83.35;96583.94;5051860;28;20231;-69
2021/11/06 10:30:26;;;;;;;1999.90;999.90;;;;;;;17.50;83.06;96574.97;5051746;28;20304;-69
2021/11/06 10:33:06;;;;;;;1999.90;999.90;;;;;;;17.47;83.60;96565.06;5051861;28;20570;-69
2021/11/06 10:35:36;;;;;;;1999.90;999.90;;;;;;;17.58;83.63;96558.41;5051633;28;20208;-69
2021/11/06 10:38:09;;;;;;;1999.90;999.90;;;;;;;17.61;82.93;96565.72;5051341;28;20205;-69
2021/11/06 10:40:41;;;;;;;1999.90;999.90;;;;;;;17.49;82.02;96562.88;5051688;28;20185;-69
2021/11/06 10:43:09;;;;;;;1999.90;999.90;;;;;;;17.61;82.68;96563.06;5051455;28;20193;-69
2021/11/06 10:45:43;;;;;;;1999.90;999.90;;;;;;;17.59;83.92;96573.13;5051217;28;20763;-69
2021/11/06 10:48:12;;;;;;;1999.90;999.90;;;;;;;17.69;85.67;96572.03;5051548;28;20269;-69
2021/11/06 10:50:52;;;;;;;1999.90;999.90;;;;;;;17.68;84.30;96562.63;5051288;28;20696;-69
2021/11/06 10:53:42;;;;;;;1999.90;999.90;;;;;;;17.63;84.31;96558.25;5051434;28;20239;-69
2021/11/06 10:56:30;;;;;;;1999.90;999.90;;;;;;;17.63;84.85;96562.78;5051177;28;20186;-69
2021/11/06 10:59:00;;;;;;;1999.90;999.90;;;;;;;17.67;83.38;96555.81;5056293;28;20318;-68